Welcome to our Virtual Airline
Sign-in:

Flight MFC6591

  • Submitted By: Igor Doksas
  • Departure Airport: Point Baker SPB (KPB)
  • Arrival Airport: Cape Pole SPB (Z71)
  • Aircraft: DHC2 BEAVERA (N003MM_AM)
  • Flight Time: 00.32.24
  • Date Submitted: 2018/08/13
  • Route: FOLLOW THE TOUR FP
  • Status: Accepted
Flight Details
Gross Revenue:
(5 load / $ 49.00 per unit
$ 245.00
Fuel Cost:
(34.9266 fuel used @ 5.1 / unit)
$ 178.13

Additional Log Information:

View Log

FS[16:17] ----- Flight Opened -----
FS[16:17] Cigar Box - 1.1.4.0
FS[16:17] FS: FSX
FS[16:17] FSUIPC: v4.966
FS[16:17] Flight Number: MFC6591
FS[16:17] FS Aircraft: DHC-2A Misty Moorings 3 Amph1
FS[16:17] FS Model: DHC2
FS[16:17] FS Type: DeHavilland
FS[16:17] Departure: KPB
FS[16:17] Arrival: Z71
FS[16:17] Flight Level: 1500
FS[16:17] Flight Type: H
FS[16:17] Passengers: 5
FS[16:17] FOB: 243 lbs
FS[16:17] Gate: n/a
FS[16:17] Crash Detection: Disabled
FS[16:17] Crash Detection Aircraft: Disabled
FS[16:17] Engines: 1 Piston
FS[16:17] NOTE: Boarding has started
FS[16:17] FS: Paused
FS[16:17] Parking Brake: Engaged
FS[16:17] Engine 1: Started
FS[16:17] Light Data: Navigation ON
FS[16:17] Light Data: Beacon ON
FS[16:17] Light Data: Landing lights ON
FS[16:17] Main Door Closed
FS[16:17] COM1: 118.50
FS[16:17] COM2: 127.80
FS[16:17] Transponder: 7274
FS[16:17] NAV1: 113.70
FS[16:17] NAV2: 110.60
FS[16:17] ADF1: 284.0
FS[16:17] ADF2: 240.0
FS[16:17] Navigation Mode: GPS
FS[16:17] Navigation Mode: GPS
FS[16:17] FS: Unpaused
FS[16:17] Flaps: Position 1
FS[16:17] Flaps: Position 2
FS[16:17] Parking Brake: Released
FS[16:17] NOTE: Taxi started
FS[16:18] Landing Gear: Retracted
FS[16:18] NOTE: ----- TAKE OFF -----
FS[16:18] GS: 56 knots
FS[16:18] TAS: 56 knots
FS[16:18] IAS: 56 knots
FS[16:18] VS: 33 fpm
FS[16:18] FOB: 242 lbs
FS[16:18] Heading: 347°
FS[16:18] Pitch: 3°
FS[16:18] Bank: 0°
FS[16:18] Aircraft Weight: 3902.09 lbs
FS[16:18] Nearest Airport: KPB
FS[16:18] Distance: 0.37 miles
FS[16:18] Runway: ???
FS[16:18] Ground Surface: Water
FS[16:18] Ground Condition: Normal
FS[16:18] NOTE: Weather Report
FS[16:18] Wind Heading: 341°
FS[16:18] Wind Speed: 0 knots
FS[16:18] OAT: 15° C
FS[16:18] TAT: 15° C
FS[16:18] Precipitation: None
FS[16:18] Dew Point: 5° C
FS[16:18] Visibility: 62 miles
FS[16:18] METAR: KPBF 131516Z AUTO 20004KT 10SM SCT006 BKN038 25/22 A3010 RMK AO2 T02500222KPBG 131453Z AUTO 15006KT 10SM FEW080 26/18 A3010 RMK AO2 SLP191 T02560178 58003KPBH 131535Z AUTO 23004KT 10SM CLR 26/21 A3009 RMK AO2 T02550211KPBI 131510Z 15009KT 10SM TS SCT033CB SCT250 29/24 A3012 RMK AO2 LTG DSNT S AND SW TSB10 OCNL LTGICCG S-SW TS S-SW MOV NW CB DSNT S-SW T02940239 $KPBX 131515Z AUTO 00000KT 10SM BKN009 20/20 A3013 RMK AO2 T02040204
FS[16:18] NOTE: Climb started
FS[16:18] Flaps: Position 1
FS[16:18] GS: 64 knots
FS[16:18] TAS: 65 knots
FS[16:18] IAS: 65 knots
FS[16:18] VS: 429 fpm
FS[16:18] Flaps: Position 0
FS[16:18] GS: 66 knots
FS[16:18] TAS: 66 knots
FS[16:18] IAS: 66 knots
FS[16:18] VS: 674 fpm
FS[16:18] View Mode: Virtual Cockpit
FS[16:19] Autopilot: Engaged
FS[16:19] AGL: 964 ft
FS[16:19] AMSL: 964 ft
FS[16:19] Recovery: Flight Saved
FS[16:20] NOTE: TOC reached
FS[16:20] NOTE: Cruise started
FS[16:20] GS: 122 knots
FS[16:20] NOTE: TOC reached
FS[16:20] NOTE: Cruise started
FS[16:20] TAS: 122 knots
FS[16:20] IAS: 118 knots
FS[16:20] VS: 186 fpm
FS[16:20] FOB: 232 lbs
FS[16:20] Heading: 128°
FS[16:20] Pitch: 1°
FS[16:20] Bank: 6°
FS[16:20] Aircraft Weight: 3892.04 lbs
FS[16:20] GS: 122 knots
FS[16:20] TAS: 122 knots
FS[16:20] IAS: 118 knots
FS[16:20] VS: 186 fpm
FS[16:20] FOB: 232 lbs
FS[16:20] Heading: 128°
FS[16:20] Pitch: 1°
FS[16:20] Bank: 6°
FS[16:20] Aircraft Weight: 3892.04 lbs
FS[16:23] Recovery: Flight Saved
FS[16:28] Recovery: Flight Saved
FS[16:31] Recovery: Flight Saved
FS[16:35] Recovery: Flight Saved
FS[16:39] Flaps: Position 1
FS[16:39] GS: 91 knots
FS[16:39] TAS: 91 knots
FS[16:39] IAS: 88 knots
FS[16:39] VS: 296 fpm
FS[16:39] Recovery: Flight Saved
FS[16:39] FS: Paused
FS[16:39] FS: Unpaused
FS[16:42] Flaps: Position 0
FS[16:42] GS: 87 knots
FS[16:42] TAS: 88 knots
FS[16:42] IAS: 85 knots
FS[16:42] VS: 6 fpm
FS[16:43] Recovery: Flight Saved
FS[16:44] Flaps: Position 1
FS[16:44] GS: 91 knots
FS[16:44] TAS: 91 knots
FS[16:44] IAS: 89 knots
FS[16:44] VS: -662 fpm
FS[16:44] Flaps: Position 2
FS[16:44] GS: 85 knots
FS[16:44] TAS: 85 knots
FS[16:44] IAS: 83 knots
FS[16:44] VS: -123 fpm
FS[16:44] Flaps: Position 3
FS[16:44] GS: 75 knots
FS[16:44] TAS: 76 knots
FS[16:44] IAS: 74 knots
FS[16:44] VS: 93 fpm
FS[16:45] NOTE: TOD reached
FS[16:45] NOTE: Descent started
FS[16:45] GS: 60 knots
FS[16:45] TAS: 63 knots
FS[16:45] IAS: 61 knots
FS[16:45] VS: -1140 fpm
FS[16:45] FOB: 168 lbs
FS[16:45] Heading: 269°
FS[16:45] Pitch: 8°
FS[16:45] Bank: -24°
FS[16:45] Aircraft Weight: 3828.61 lbs
FS[16:45] NOTE: On approach
FS[16:46] Autopilot: Disengaged
FS[16:46] AGL: 341 ft
FS[16:46] AMSL: 341 ft
FS[16:47] NOTE: ----- LANDED -----
FS[16:47] Landing Rate: -53.83 fpm
FS[16:47] GS: 50 knots
FS[16:47] TAS: 51 knots
FS[16:47] IAS: 51 knots
FS[16:47] VS: -40 fpm
FS[16:47] FOB: 166 lbs
FS[16:47] Heading: 333°
FS[16:47] Pitch: 2°
FS[16:47] Bank: 0°
FS[16:47] Aircraft Weight: 3826.30 lbs
FS[16:47] Nearest Airport: Z71
FS[16:47] Distance: 1.32 miles
FS[16:47] Runway: ???
FS[16:47] Ground Surface: Water
FS[16:47] Ground Condition: Normal
FS[16:47] NOTE: Weather Report
FS[16:47] Wind Heading: 341°
FS[16:47] Wind Speed: 0 knots
FS[16:47] OAT: 15° C
FS[16:47] TAT: 15° C
FS[16:47] Precipitation: None
FS[16:47] Dew Point: 4° C
FS[16:47] Visibility: 62 miles
FS[16:47] METAR: No METAR available for Z71.
FS[16:47] View Mode: Virtual Cockpit
FS[16:47] NOTE: Taxi started
FS[16:48] Flaps: Position 0
FS[16:49] NOTE: Arrived
FS[16:49] Parking Brake: Engaged
FS[16:49] Gate: n/a
FS[16:49] NOTE: Flight Completed
FS[16:49] FS Aircraft: DHC-2A Misty Moorings 3 Amph1
FS[16:49] FS Model: DHC2
FS[16:49] FS Type: DeHavilland
FS[16:49] FOB: 166 lbs
FS[16:49] Fuel Used: 77 lbs
FS[16:49] Flight Time: 00:32:24
FS[16:49] Flight Time (Dawn): 00:00:00
FS[16:49] Flight Time (Day): 00:32:24
FS[16:49] Flight Time (Dusk): 00:00:00
FS[16:49] Flight Time (Night): 00:00:00
FS[16:49] Total Landings: 1
FS[16:49] MaxSim Rate: 0x
FS[16:49] Cigar Box - 1.1.4.0
FS[16:49] ----- Flight Closed -----

Route Map